Time;durP1;ratioP1;P1;durP2;ratioP2;P2;SDS_P1;SDS_P2;PMS_P1;PMS_P2;Temp;Humidity;BMP_temperature;BMP_pressure;BME280_temperature;BME280_humidity;BME280_pressure;Samples;Min_cycle;Max_cycle;Signal;HPM_P1;HPM_P2
2022/01/22 00:01:56;;;;;;;4.90;2.33;;;;;;;-2.69;100.00;98008.13;5150981;27;20183;-50
2022/01/22 00:04:22;;;;;;;9.63;1.95;;;;;;;-2.67;100.00;98005.91;5150959;27;20050;-51
2022/01/22 00:06:51;;;;;;;1.88;1.50;;;;;;;-2.59;100.00;98010.56;5152801;27;20153;-51
2022/01/22 00:09:24;;;;;;;3.65;1.38;;;;;;;-2.54;100.00;98010.41;5154997;27;20134;-51
2022/01/22 00:11:51;;;;;;;6.72;1.95;;;;;;;-2.54;100.00;98015.78;5154834;27;20115;-52
2022/01/22 00:14:23;;;;;;;4.10;1.70;;;;;;;-2.55;100.00;98019.56;5154714;27;20137;-52
2022/01/22 00:16:50;;;;;;;2.65;1.70;;;;;;;-2.57;100.00;98021.75;5154476;27;20494;-50
2022/01/22 00:19:17;;;;;;;6.82;2.30;;;;;;;-2.58;100.00;98020.19;5154549;27;20054;-51
2022/01/22 00:21:44;;;;;;;2.17;1.67;;;;;;;-2.54;100.00;98023.81;5154785;27;20549;-49
2022/01/22 00:24:12;;;;;;;2.08;1.52;;;;;;;-2.58;100.00;98025.53;5154465;27;20046;-50
2022/01/22 00:26:39;;;;;;;1.35;1.25;;;;;;;-2.56;100.00;98025.25;5154666;27;20058;-52
2022/01/22 00:29:06;;;;;;;3.33;1.73;;;;;;;-2.59;100.00;98023.19;5154302;27;20042;-51
2022/01/22 00:31:32;;;;;;;1.75;1.48;;;;;;;-2.56;100.00;98025.25;5154534;27;20078;-50
2022/01/22 00:33:58;;;;;;;2.78;1.40;;;;;;;-2.57;100.00;98035.16;5154278;27;20066;-51
2022/01/22 00:36:25;;;;;;;1.25;1.08;;;;;;;-2.54;100.00;98025.72;5154472;27;20530;-51
2022/01/22 00:38:51;;;;;;;1.92;1.23;;;;;;;-2.56;100.00;98025.25;5154252;27;20069;-50
2022/01/22 00:41:17;;;;;;;3.65;1.33;;;;;;;-2.61;100.00;98026.16;5154267;27;20053;-54
2022/01/22 00:43:45;;;;;;;2.17;1.23;;;;;;;-2.64;100.00;98032.13;5154200;27;20050;-50
2022/01/22 00:46:12;;;;;;;1.20;1.10;;;;;;;-2.63;100.00;98031.06;5154155;27;20606;-50
2022/01/22 00:48:38;;;;;;;1.70;1.27;;;;;;;-2.59;100.00;98029.34;5154110;27;20054;-50
2022/01/22 00:51:04;;;;;;;6.00;1.27;;;;;;;-2.53;100.00;98033.47;5153965;27;20508;-51
2022/01/22 00:53:32;;;;;;;4.50;1.80;;;;;;;-2.55;100.00;98032.19;5154077;27;20051;-50
2022/01/22 00:55:58;;;;;;;1.70;1.10;;;;;;;-2.55;100.00;98042.94;5153960;27;20046;-51
2022/01/22 00:58:25;;;;;;;4.68;1.25;;;;;;;-2.58;100.00;98028.22;5153408;27;20398;-52
2022/01/22 01:00:52;;;;;;;6.30;2.22;;;;;;;-2.50;100.00;98030.19;5153835;27;20050;-52
2022/01/22 01:03:18;;;;;;;9.60;2.55;;;;;;;-2.46;100.00;98027.69;5153922;27;20500;-51
2022/01/22 01:05:44;;;;;;;2.03;1.20;;;;;;;-2.50;100.00;98024.81;5153861;27;20398;-52
2022/01/22 01:08:10;;;;;;;2.13;1.42;;;;;;;-2.53;100.00;98030.81;5153823;27;20049;-52
2022/01/22 01:10:37;;;;;;;3.25;1.40;;;;;;;-2.50;100.00;98022.13;5153849;27;20057;-53
2022/01/22 01:13:05;;;;;;;1.80;1.33;;;;;;;-2.55;100.00;98030.31;5153747;27;20046;-51
2022/01/22 01:15:42;;;;;;;5.38;2.05;;;;;;;-2.56;100.00;98025.25;5153668;27;20086;-50
2022/01/22 01:32:14;;;;;;;4.35;1.60;;;;;;;-2.57;100.00;98053.16;5153456;27;20095;-52
2022/01/22 01:34:43;;;;;;;2.13;1.35;;;;;;;-2.57;100.00;98050.47;5153807;27;20493;-50
2022/01/22 01:37:12;;;;;;;3.17;1.00;;;;;;;-2.61;100.00;98058.34;5153364;27;20050;-51
2022/01/22 01:39:40;;;;;;;1.23;1.13;;;;;;;-2.66;100.00;98058.50;5153441;27;20058;-51
2022/01/22 01:42:10;;;;;;;2.47;0.93;;;;;;;-2.64;100.00;98054.38;5153388;27;20062;-50
2022/01/22 01:44:36;;;;;;;1.17;1.10;;;;;;;-2.63;100.00;98047.16;5152934;27;20110;-50
2022/01/22 01:47:06;;;;;;;1.83;1.15;;;;;;;-2.62;100.00;98051.41;5153461;27;20055;-51
2022/01/22 01:49:33;;;;;;;1.75;1.00;;;;;;;-2.62;100.00;98052.19;5153284;27;20428;-50
2022/01/22 01:52:03;;;;;;;1.20;1.10;;;;;;;-2.71;100.00;98051.34;5152990;27;20056;-53
2022/01/22 01:54:36;;;;;;;1.55;1.08;;;;;;;-2.77;100.00;98049.88;5153077;27;20091;-50
2022/01/22 01:59:51;;;;;;;1.13;0.80;;;;;;;-2.84;100.00;98058.34;5153062;27;20799;-51
2022/01/22 02:02:18;;;;;;;0.98;0.60;;;;;;;-2.79;100.00;98049.41;5153059;27;20485;-52
2022/01/22 02:04:44;;;;;;;1.20;0.88;;;;;;;-2.81;100.00;98050.78;5153219;27;20043;-53
2022/01/22 02:07:11;;;;;;;1.67;0.75;;;;;;;-2.91;100.00;98063.34;5153047;27;20047;-54
2022/01/22 02:09:40;;;;;;;3.40;1.13;;;;;;;-2.97;100.00;98069.91;5153049;27;20102;-51
2022/01/22 02:12:12;;;;;;;1.92;1.45;;;;;;;-2.95;100.00;98066.94;5152586;27;20094;-51
2022/01/22 02:25:38;;;;;;;0.82;0.82;;;;;;;-3.07;100.00;98088.91;5152640;27;20284;-53
2022/01/22 02:28:04;;;;;;;2.35;1.15;;;;;;;-3.06;100.00;98097.75;5152548;27;20053;-54
2022/01/22 02:30:34;;;;;;;5.15;0.80;;;;;;;-3.02;100.00;98099.53;5151254;27;20406;-52
2022/01/22 02:33:14;;;;;;;1.50;0.85;;;;;;;-3.04;100.00;98098.25;5152696;27;20050;-50
2022/01/22 02:35:48;;;;;;;0.60;0.60;;;;;;;-3.01;100.00;98111.03;5152408;27;20065;-52
2022/01/22 02:38:20;;;;;;;0.98;0.85;;;;;;;-3.01;100.00;98111.03;5152180;27;20047;-53
2022/01/22 02:40:48;;;;;;;1.70;0.95;;;;;;;-3.02;100.00;98120.97;5152554;27;20158;-51
2022/01/22 02:43:15;;;;;;;2.70;0.85;;;;;;;-2.93;100.00;98113.81;5152392;27;20478;-51
2022/01/22 02:45:44;;;;;;;4.82;1.42;;;;;;;-2.98;100.00;98118.50;5152708;27;20050;-53
2022/01/22 02:48:10;;;;;;;1.67;0.93;;;;;;;-2.97;100.00;98125.44;5152196;27;20050;-51
2022/01/22 02:50:37;;;;;;;1.75;0.90;;;;;;;-2.99;100.00;98127.63;5152255;27;20043;-51
2022/01/22 02:53:05;;;;;;;0.60;0.60;;;;;;;-3.04;100.00;98139.25;5151927;27;20055;-52
2022/01/22 02:55:32;;;;;;;1.85;0.80;;;;;;;-3.15;100.00;98148.59;5152252;27;20492;-50
2022/01/22 02:57:59;;;;;;;1.67;0.93;;;;;;;-3.19;100.00;98155.66;5152047;27;20505;-50
2022/01/22 03:00:25;;;;;;;1.15;0.90;;;;;;;-3.11;100.00;98163.00;5151662;27;20133;-50
2022/01/22 03:02:52;;;;;;;0.80;0.80;;;;;;;-3.11;100.00;98168.34;5152063;27;20058;-51
2022/01/22 03:05:19;;;;;;;2.42;0.85;;;;;;;-3.08;100.00;98171.22;5151920;27;20047;-51
2022/01/22 03:07:50;;;;;;;1.23;0.98;;;;;;;-3.10;100.00;98176.13;5151985;27;20050;-50
2022/01/22 03:10:20;;;;;;;0.75;0.75;;;;;;;-3.02;100.00;98177.28;5151690;27;20057;-50
2022/01/22 03:13:04;;;;;;;2.83;0.93;;;;;;;-3.03;100.00;98190.97;5151897;27;20047;-52
2022/01/22 03:15:52;;;;;;;1.75;0.77;;;;;;;-3.03;100.00;98202.53;5151860;27;20047;-53
2022/01/22 03:18:22;;;;;;;2.08;0.95;;;;;;;-2.94;100.00;98195.34;5151526;27;20095;-51
2022/01/22 03:21:06;;;;;;;2.58;0.90;;;;;;;-3.01;100.00;98204.91;5151854;27;20055;-55
2022/01/22 03:29:05;;;;;;;;;;;;;;;-2.94;100.00;98221.38;5152084;27;20191;-50
2022/01/22 03:31:32;;;;;;;2.80;0.95;;;;;;;-2.98;100.00;98218.50;5151768;27;19922;-51
2022/01/22 03:33:59;;;;;;;1.17;0.77;;;;;;;-2.99;100.00;98227.66;5151766;27;20605;-50
2022/01/22 03:36:29;;;;;;;1.67;1.23;;;;;;;-2.96;100.00;98237.00;5151669;27;20573;-52
2022/01/22 03:38:55;;;;;;;1.48;0.90;;;;;;;-2.89;100.00;98235.47;5151479;27;20137;-49
2022/01/22 03:41:23;;;;;;;0.85;0.85;;;;;;;-2.87;100.00;98233.28;5150840;27;20065;-52
2022/01/22 03:43:50;;;;;;;1.30;0.85;;;;;;;-2.84;100.00;98239.94;5151418;27;20425;-54
2022/01/22 03:46:17;;;;;;;2.08;1.08;;;;;;;-2.75;100.00;98235.47;5151355;27;20050;-51
2022/01/22 03:48:43;;;;;;;2.38;1.15;;;;;;;-2.82;100.00;98242.34;5151398;27;20050;-52
2022/01/22 03:51:09;;;;;;;1.95;1.13;;;;;;;-2.78;100.00;98244.13;5151206;27;20543;-50
2022/01/22 03:53:36;;;;;;;1.08;1.00;;;;;;;-2.85;100.00;98243.72;5151291;27;20142;-53
2022/01/22 03:56:04;;;;;;;1.80;1.08;;;;;;;-2.79;100.00;98255.16;5151489;27;20054;-51
2022/01/22 03:58:31;;;;;;;0.80;0.80;;;;;;;-2.76;100.00;98254.56;5151276;27;20051;-52
2022/01/22 04:01:22;;;;;;;1.85;1.17;;;;;;;-2.75;100.00;98256.94;5151104;27;20047;-51
2022/01/22 04:03:56;;;;;;;7.03;1.20;;;;;;;-2.82;100.00;98264.59;5151154;27;20137;-54
2022/01/22 04:07:02;;;;;;;1.40;1.20;;;;;;;-2.76;100.00;98267.97;5151073;27;20477;-51
2022/01/22 04:09:29;;;;;;;0.90;0.90;;;;;;;-2.81;100.00;98276.91;5150856;27;20078;-53
2022/01/22 04:11:57;;;;;;;2.05;1.33;;;;;;;-2.88;100.00;98293.38;5150897;27;20046;-52
2022/01/22 04:14:28;;;;;;;2.35;1.10;;;;;;;-2.89;100.00;98294.50;5151021;27;20050;-50
2022/01/22 04:17:04;;;;;;;1.35;1.20;;;;;;;-2.98;100.00;98303.53;5150757;27;20047;-52
2022/01/22 04:25:00;;;;;;;3.63;1.33;;;;;;;-2.92;100.00;98321.13;5151032;27;20592;-52
2022/01/22 04:27:27;;;;;;;3.38;1.52;;;;;;;-2.89;100.00;98315.16;5150684;27;20047;-50
2022/01/22 04:29:57;;;;;;;1.80;1.25;;;;;;;-2.90;100.00;98324.28;5150846;27;20047;-51
2022/01/22 04:32:24;;;;;;;1.58;1.40;;;;;;;-2.85;100.00;98330.34;5150718;27;20107;-51
2022/01/22 04:34:51;;;;;;;1.00;0.90;;;;;;;-2.97;100.00;98321.19;5150752;27;20054;-52
2022/01/22 04:37:18;;;;;;;1.45;1.35;;;;;;;-3.01;100.00;98336.28;5150874;27;20358;-54
2022/01/22 04:39:45;;;;;;;7.78;1.33;;;;;;;-3.02;100.00;98335.50;5150985;27;20050;-52
2022/01/22 04:42:12;;;;;;;2.40;1.13;;;;;;;-3.15;100.00;98336.28;5150786;27;20116;-53
2022/01/22 04:44:46;;;;;;;1.80;1.15;;;;;;;-3.28;100.00;98345.06;5150753;27;20053;-51
2022/01/22 04:47:20;;;;;;;3.42;1.48;;;;;;;-3.40;100.00;98341.00;5150725;27;20142;-49
2022/01/22 04:52:43;;;;;;;3.92;1.13;;;;;;;-3.62;100.00;98344.28;5150662;27;20049;-50
2022/01/22 04:55:10;;;;;;;1.15;1.05;;;;;;;-3.55;100.00;98344.69;5154311;27;20691;-53
2022/01/22 04:57:40;;;;;;;2.15;1.15;;;;;;;-3.49;100.00;98341.94;5154141;27;20511;-51
2022/01/22 05:00:09;;;;;;;3.67;1.45;;;;;;;-3.41;100.00;98341.25;5153522;27;20398;-51
2022/01/22 05:02:35;;;;;;;2.78;1.27;;;;;;;-3.34;100.00;98339.78;5153644;27;20489;-52
2022/01/22 05:05:01;;;;;;;2.92;1.10;;;;;;;-3.29;100.00;98346.19;5153955;27;20447;-50
2022/01/22 05:07:27;;;;;;;2.55;0.98;;;;;;;-3.24;100.00;98356.78;5153779;27;20099;-53
2022/01/22 05:09:54;;;;;;;4.57;1.60;;;;;;;-3.24;100.00;98365.63;5153911;27;20484;-54
2022/01/22 05:12:21;;;;;;;1.80;1.30;;;;;;;-3.24;100.00;98373.66;5153635;27;20489;-50
2022/01/22 05:14:47;;;;;;;4.75;1.38;;;;;;;-3.35;100.00;98377.63;5154111;27;20078;-53
2022/01/22 05:17:13;;;;;;;2.03;1.38;;;;;;;-3.33;100.00;98376.25;5154045;27;20043;-49
2022/01/22 05:19:48;;;;;;;2.85;1.50;;;;;;;-3.24;100.00;98379.03;5154044;27;20371;-50
2022/01/22 05:22:27;;;;;;;1.33;1.05;;;;;;;-3.24;100.00;98375.56;5153683;27;20051;-50
2022/01/22 05:24:59;;;;;;;5.22;1.30;;;;;;;-3.25;100.00;98382.81;5153635;27;20054;-51
2022/01/22 05:27:43;;;;;;;2.40;1.30;;;;;;;-3.24;100.00;98370.19;5153474;27;20046;-50
2022/01/22 05:30:24;;;;;;;;;;;;;;;-3.34;100.00;98369.28;5154607;27;20043;-53
2022/01/22 05:32:59;;;;;;;1.30;1.10;;;;;;;-3.43;100.00;98365.69;5153806;27;19971;-50
2022/01/22 05:38:10;;;;;;;2.75;1.00;;;;;;;-3.48;100.00;98387.19;5153359;27;20094;-50
2022/01/22 05:40:37;;;;;;;3.20;1.50;;;;;;;-3.49;100.00;98393.66;5153222;27;20043;-54
2022/01/22 05:43:04;;;;;;;2.58;1.70;;;;;;;-3.53;100.00;98389.16;5153373;27;20437;-50
2022/01/22 05:45:30;;;;;;;3.65;1.30;;;;;;;-3.61;100.00;98399.44;5153200;27;20042;-50
2022/01/22 05:47:57;;;;;;;4.30;1.98;;;;;;;-3.62;100.00;98402.41;5153062;27;20046;-50
2022/01/22 05:50:31;;;;;;;2.33;1.80;;;;;;;-3.71;100.00;98410.31;5153320;27;20047;-51
2022/01/22 05:53:01;;;;;;;4.03;1.77;;;;;;;-3.81;100.00;98423.84;5153257;27;20421;-49
2022/01/22 06:00:53;;;;;;;1.58;1.25;;;;;;;-4.01;100.00;98443.63;5152674;27;20459;-51
2022/01/22 06:03:19;;;;;;;1.80;1.27;;;;;;;-3.93;100.00;98455.59;5152877;27;20073;-50
2022/01/22 06:05:46;;;;;;;1.95;1.25;;;;;;;-3.93;100.00;98459.09;5152595;27;20106;-51
2022/01/22 06:08:16;;;;;;;2.00;1.30;;;;;;;-3.89;100.00;98478.03;5153157;27;20137;-51
2022/01/22 06:10:42;;;;;;;2.05;1.63;;;;;;;-4.08;100.00;98475.31;5152702;27;20058;-52
2022/01/22 06:13:12;;;;;;;6.40;1.95;;;;;;;-4.06;100.00;98478.53;5152787;27;20054;-54
2022/01/22 06:15:39;;;;;;;1.58;1.48;;;;;;;-4.09;100.00;98487.13;5152775;27;20047;-52
2022/01/22 06:18:05;;;;;;;2.00;1.33;;;;;;;-3.97;100.00;98484.03;5152701;27;20046;-53
2022/01/22 06:20:32;;;;;;;1.83;1.50;;;;;;;-3.74;100.00;98491.22;5152512;27;20061;-53
2022/01/22 06:22:58;;;;;;;2.15;1.50;;;;;;;-3.57;100.00;98486.19;5152400;27;20050;-51
2022/01/22 06:25:25;;;;;;;5.55;1.40;;;;;;;-3.70;100.00;98484.22;5152304;27;20520;-51
2022/01/22 06:27:51;;;;;;;1.25;1.10;;;;;;;-3.69;100.00;98466.28;5152300;27;20046;-54
2022/01/22 06:30:19;;;;;;;4.57;1.20;;;;;;;-3.55;100.00;98457.22;5152520;27;20065;-50
2022/01/22 06:32:45;;;;;;;1.73;1.35;;;;;;;-3.59;100.00;98432.09;5152487;27;20050;-51
2022/01/22 06:35:12;;;;;;;4.55;1.48;;;;;;;-3.49;100.00;98427.69;5152383;27;20054;-50
2022/01/22 06:37:38;;;;;;;3.35;1.42;;;;;;;-3.36;100.00;98422.38;5152318;27;20443;-52
2022/01/22 06:42:49;;;;;;;1.85;1.27;;;;;;;-3.37;100.00;98412.72;5152353;27;20486;-50
2022/01/22 06:45:16;;;;;;;2.95;1.60;;;;;;;-3.57;100.00;98400.44;5152189;27;20069;-49
2022/01/22 06:47:43;;;;;;;2.88;1.73;;;;;;;-3.58;100.00;98398.06;5152260;27;20137;-50
2022/01/22 06:50:10;;;;;;;5.32;1.27;;;;;;;-3.78;100.00;98383.09;5152181;27;20046;-51
2022/01/22 06:52:37;;;;;;;0.60;0.60;;;;;;;-3.88;100.00;98375.19;5151991;27;20436;-52
2022/01/22 06:55:04;;;;;;;1.90;1.40;;;;;;;-4.05;100.00;98359.63;5151588;27;20043;-51
2022/01/22 06:57:31;;;;;;;2.60;1.48;;;;;;;-3.89;100.00;98389.69;5152109;27;20051;-51
2022/01/22 06:59:58;;;;;;;2.05;1.60;;;;;;;-3.69;100.00;98405.47;5151675;27;20050;-49
2022/01/22 07:02:24;;;;;;;1.67;1.38;;;;;;;-3.67;100.00;98394.44;5151985;27;20103;-51
2022/01/22 07:04:51;;;;;;;1.50;1.40;;;;;;;-3.64;100.00;98381.25;5152086;27;20054;-50
2022/01/22 07:07:17;;;;;;;2.78;1.55;;;;;;;-3.66;100.00;98374.63;5151871;27;20054;-51
2022/01/22 07:09:45;;;;;;;3.75;1.20;;;;;;;-3.66;100.00;98386.13;5152106;27;20050;-52
2022/01/22 07:12:12;;;;;;;1.48;1.38;;;;;;;-3.69;100.00;98381.34;5151804;27;20047;-50
2022/01/22 07:14:38;;;;;;;1.63;1.15;;;;;;;-3.69;100.00;98405.47;5151715;27;20107;-50
2022/01/22 07:17:04;;;;;;;2.55;1.23;;;;;;;-3.58;100.00;98422.97;5150998;27;20424;-53
2022/01/22 07:19:38;;;;;;;1.40;1.30;;;;;;;-3.61;100.00;98420.06;5151645;27;20056;-50
2022/01/22 07:22:09;;;;;;;4.57;1.65;;;;;;;-3.65;100.00;98459.25;5151559;27;20050;-52
2022/01/22 07:24:37;;;;;;;3.60;1.30;;;;;;;-3.54;100.00;98466.06;5151774;27;20050;-50
2022/01/22 07:27:04;;;;;;;1.40;1.30;;;;;;;-3.53;100.00;98486.44;5151780;27;20050;-50
2022/01/22 07:29:30;;;;;;;8.77;1.90;;;;;;;-3.47;100.00;98493.28;5151814;27;20057;-51
2022/01/22 07:32:00;;;;;;;4.05;1.42;;;;;;;-3.53;100.00;98499.00;5151549;27;20053;-51
2022/01/22 07:34:26;;;;;;;1.75;1.58;;;;;;;-3.52;100.00;98493.38;5151616;27;20046;-51
2022/01/22 07:36:52;;;;;;;2.20;1.38;;;;;;;-3.37;100.00;98505.75;5151617;27;20051;-51
2022/01/22 07:39:19;;;;;;;6.78;1.75;;;;;;;-3.38;100.00;98506.84;5151923;27;20089;-51
2022/01/22 07:41:46;;;;;;;3.75;1.77;;;;;;;-3.21;100.00;98509.81;5151841;27;20467;-50
2022/01/22 07:44:12;;;;;;;2.95;1.60;;;;;;;-3.25;100.00;98499.97;5151673;27;20054;-50
2022/01/22 07:46:39;;;;;;;1.80;1.33;;;;;;;-3.26;100.00;98503.75;5151219;27;20103;-51
2022/01/22 07:49:06;;;;;;;2.38;1.50;;;;;;;-3.24;100.00;98499.66;5151232;27;20107;-50
2022/01/22 07:51:32;;;;;;;2.97;1.70;;;;;;;-3.25;100.00;98500.75;5151315;27;20142;-50
2022/01/22 07:53:59;;;;;;;4.57;1.67;;;;;;;-3.28;100.00;98487.94;5151154;27;20177;-54
2022/01/22 07:56:26;;;;;;;4.63;1.73;;;;;;;-3.24;100.00;98504.22;5151300;27;20077;-50
2022/01/22 07:58:52;;;;;;;1.67;1.25;;;;;;;-2.97;100.00;98522.34;5151016;27;20080;-51
2022/01/22 08:01:18;;;;;;;1.98;1.33;;;;;;;-3.05;100.00;98507.72;5150516;27;20062;-53
2022/01/22 08:03:44;;;;;;;2.60;1.35;;;;;;;-2.99;100.00;98500.38;5150984;27;20141;-54
2022/01/22 08:06:11;;;;;;;1.67;1.42;;;;;;;-2.94;100.00;98501.09;5151102;27;20134;-50
2022/01/22 08:08:37;;;;;;;4.10;1.58;;;;;;;-2.90;100.00;98495.94;5150982;27;20111;-51
2022/01/22 08:11:03;;;;;;;3.03;1.63;;;;;;;-2.96;100.00;98484.50;5150800;27;20058;-51
2022/01/22 08:13:30;;;;;;;3.30;1.30;;;;;;;-2.99;100.00;98477.03;5150837;27;20049;-51
2022/01/22 08:15:57;;;;;;;2.33;1.50;;;;;;;-2.97;100.00;98485.56;5150837;27;20391;-51
2022/01/22 08:18:23;;;;;;;6.47;1.98;;;;;;;-2.90;100.00;98483.34;5150728;27;20050;-50
2022/01/22 08:20:49;;;;;;;4.43;2.33;;;;;;;-2.82;100.00;98483.75;5151054;27;20042;-51
2022/01/22 08:23:15;;;;;;;3.28;1.63;;;;;;;-2.93;100.00;98464.34;5151030;27;20043;-51
2022/01/22 08:25:45;;;;;;;1.58;1.20;;;;;;;-2.92;100.00;98455.22;5150748;27;20054;-52
2022/01/22 08:31:02;;;;;;;5.72;1.70;;;;;;;-2.78;100.00;98469.47;5154460;27;20045;-54
2022/01/22 08:36:15;;;;;;;3.53;1.73;;;;;;;-2.74;100.00;98443.63;5153188;27;20438;-53
2022/01/22 08:38:41;;;;;;;10.75;3.47;;;;;;;-2.72;100.00;98440.66;5154210;27;20050;-52
2022/01/22 08:41:09;;;;;;;5.63;1.80;;;;;;;-2.74;100.00;98437.47;5154135;27;20050;-51
2022/01/22 08:43:35;;;;;;;4.35;1.80;;;;;;;-2.65;100.00;98427.66;5154099;27;20046;-52
2022/01/22 08:46:03;;;;;;;5.20;1.75;;;;;;;-2.64;100.00;98426.56;5154096;27;20564;-51
2022/01/22 08:48:30;;;;;;;3.03;2.40;;;;;;;-2.54;100.00;98418.31;5154314;27;20106;-53
2022/01/22 08:50:57;;;;;;;4.63;1.90;;;;;;;-2.28;100.00;98405.19;5154125;27;20046;-54
2022/01/22 08:53:25;;;;;;;6.13;2.55;;;;;;;-2.04;100.00;98370.06;5154009;27;20428;-52
2022/01/22 08:55:51;;;;;;;4.07;2.33;;;;;;;-2.12;100.00;98292.91;5154108;27;20046;-51
2022/01/22 08:58:18;;;;;;;3.25;2.00;;;;;;;-2.19;100.00;98254.94;5153996;27;20412;-54
2022/01/22 09:00:45;;;;;;;4.80;2.28;;;;;;;-2.29;100.00;98218.38;5153651;27;20058;-51
2022/01/22 09:03:15;;;;;;;3.97;2.30;;;;;;;-2.29;100.00;98234.47;5153936;27;20472;-51
2022/01/22 09:05:42;;;;;;;3.38;2.22;;;;;;;-2.16;100.00;98257.03;5153928;27;20046;-52
2022/01/22 09:08:08;;;;;;;4.00;2.45;;;;;;;-2.07;100.00;98249.81;5153865;27;20129;-52
2022/01/22 09:10:34;;;;;;;3.78;1.63;;;;;;;-2.22;100.00;98185.75;5153567;27;20483;-52
2022/01/22 09:13:00;;;;;;;4.45;2.45;;;;;;;-2.21;100.00;98217.63;5153674;27;20529;-51
2022/01/22 09:15:27;;;;;;;6.90;2.95;;;;;;;-2.16;100.00;98197.94;5153706;27;20501;-50
2022/01/22 09:17:53;;;;;;;3.13;2.10;;;;;;;-2.20;100.00;98202.31;5153862;27;20134;-51
2022/01/22 09:20:42;;;;;;;6.47;2.50;;;;;;;-2.14;100.00;98223.38;5153588;27;20051;-55
2022/01/22 09:23:10;;;;;;;5.93;2.70;;;;;;;-1.83;100.00;98225.34;5153812;27;20130;-53
2022/01/22 09:25:36;;;;;;;6.15;2.80;;;;;;;-1.71;100.00;98206.75;5153517;27;20436;-51
2022/01/22 09:28:03;;;;;;;6.57;3.17;;;;;;;-1.71;100.00;98166.47;5153765;27;20054;-50
2022/01/22 09:30:30;;;;;;;4.75;2.55;;;;;;;-1.79;100.00;98132.28;5153327;27;20462;-55
2022/01/22 09:32:56;;;;;;;3.85;2.80;;;;;;;-1.93;100.00;98121.63;5153337;27;20043;-52
2022/01/22 09:35:23;;;;;;;6.45;2.90;;;;;;;-2.00;100.00;98115.09;5153309;27;20103;-50
2022/01/22 09:37:50;;;;;;;6.57;3.13;;;;;;;-2.05;100.00;98113.34;5153171;27;20068;-53
2022/01/22 09:40:16;;;;;;;7.63;2.95;;;;;;;-2.00;100.00;98136.59;5152671;27;20057;-50
2022/01/22 09:42:42;;;;;;;5.45;2.53;;;;;;;-2.10;100.00;98109.97;5153416;27;20077;-51
2022/01/22 09:45:12;;;;;;;4.25;3.13;;;;;;;-1.82;100.00;98140.97;5153562;27;20043;-50
2022/01/22 09:47:39;;;;;;;10.75;3.47;;;;;;;-1.64;100.00;98125.69;5153143;27;20094;-51
2022/01/22 09:50:06;;;;;;;5.18;2.97;;;;;;;-1.54;100.00;98089.69;5152962;27;20428;-51
2022/01/22 09:52:34;;;;;;;5.22;3.10;;;;;;;-1.50;100.00;98066.47;5153053;27;20094;-54
2022/01/22 09:55:01;;;;;;;5.00;2.75;;;;;;;-1.46;100.00;98044.03;5153308;27;20138;-51
2022/01/22 09:57:27;;;;;;;5.28;2.78;;;;;;;-1.61;100.00;98009.53;5153202;27;20134;-54
2022/01/22 09:59:53;;;;;;;5.18;2.97;;;;;;;-1.68;100.00;97972.38;5152667;27;20050;-52
2022/01/22 10:02:21;;;;;;;6.30;2.97;;;;;;;-1.64;100.00;97977.13;5152966;27;20515;-52
2022/01/22 10:04:48;;;;;;;3.75;2.70;;;;;;;-1.70;100.00;97944.22;5152845;27;20125;-50
2022/01/22 10:07:17;;;;;;;4.85;2.60;;;;;;;-1.67;100.00;97928.28;5152906;27;20442;-50
2022/01/22 10:09:58;;;;;;;5.80;3.13;;;;;;;-1.67;100.00;97919.41;5152949;27;20099;-54
2022/01/22 10:12:26;;;;;;;7.65;2.80;;;;;;;-1.57;100.00;97919.09;5153054;27;20058;-54
2022/01/22 10:15:10;;;;;;;5.15;3.58;;;;;;;-1.43;100.00;97937.78;5152554;27;20505;-53
2022/01/22 10:17:41;;;;;;;5.43;2.90;;;;;;;-1.21;100.00;97937.59;5153128;27;20188;-54
2022/01/22 10:20:27;;;;;;;8.27;3.10;;;;;;;-1.25;100.00;97890.16;5152726;27;20047;-55
2022/01/22 10:22:59;;;;;;;4.47;2.88;;;;;;;-1.07;100.00;97912.44;5152596;27;20505;-53
2022/01/22 10:25:31;;;;;;;8.43;2.95;;;;;;;-1.11;100.00;97911.50;5152422;27;20458;-54
2022/01/22 10:27:59;;;;;;;8.73;3.17;;;;;;;-1.21;100.00;97912.63;5152365;27;20053;-54
2022/01/22 10:30:34;;;;;;;7.18;2.95;;;;;;;-1.43;100.00;97886.72;5152556;27;20470;-55
2022/01/22 10:33:18;;;;;;;4.65;3.08;;;;;;;-1.52;100.00;97926.22;5152399;27;20047;-55
2022/01/22 10:35:44;;;;;;;12.07;3.38;;;;;;;-1.56;100.00;97973.66;5152490;27;20046;-54
2022/01/22 10:38:10;;;;;;;4.68;3.10;;;;;;;-1.60;100.00;98013.81;5152787;27;20050;-52
2022/01/22 10:40:39;;;;;;;4.53;3.20;;;;;;;-1.70;100.00;98030.19;5152847;27;20575;-50
2022/01/22 10:43:20;;;;;;;7.93;4.00;;;;;;;-1.66;100.00;98037.34;5152167;27;20485;-54
2022/01/22 10:46:08;;;;;;;5.90;3.70;;;;;;;-1.53;100.00;98062.53;5152211;27;20095;-51
2022/01/22 10:48:35;;;;;;;6.70;3.30;;;;;;;-1.40;100.00;98082.31;5151861;27;20046;-53
2022/01/22 10:51:05;;;;;;;5.32;3.00;;;;;;;-1.49;100.00;98057.31;5150876;27;20061;-54
2022/01/22 10:53:42;;;;;;;10.80;4.07;;;;;;;-1.55;100.00;98048.59;5152220;27;20223;-51
2022/01/22 10:56:11;;;;;;;7.50;3.53;;;;;;;-1.70;100.00;98063.25;5152031;27;20095;-51
2022/01/22 10:58:56;;;;;;;6.68;4.05;;;;;;;-1.65;100.00;98102.63;5152089;27;20050;-52
2022/01/22 11:01:25;;;;;;;5.35;3.13;;;;;;;-1.65;100.00;98124.13;5151344;27;20046;-51
2022/01/22 11:04:06;;;;;;;7.55;2.80;;;;;;;-1.76;100.00;98131.69;5152028;27;20057;-52
2022/01/22 11:06:32;;;;;;;8.77;3.83;;;;;;;-1.82;100.00;98156.28;5151951;27;20141;-54
2022/01/22 11:08:59;;;;;;;8.05;3.85;;;;;;;-1.95;100.00;98164.13;5152043;27;20510;-52
2022/01/22 11:11:26;;;;;;;5.55;3.40;;;;;;;-1.98;100.00;98198.84;5152393;27;20055;-54
2022/01/22 11:13:52;;;;;;;8.23;3.10;;;;;;;-2.12;100.00;98220.41;5151903;27;20089;-52
2022/01/22 11:16:19;;;;;;;5.10;2.97;;;;;;;-2.14;100.00;98262.88;5152247;27;20053;-50
2022/01/22 11:18:48;;;;;;;6.20;3.38;;;;;;;-2.09;100.00;98316.47;5151926;27;20042;-51
2022/01/22 11:21:16;;;;;;;4.72;3.20;;;;;;;-2.14;100.00;98349.59;5151693;27;20047;-50
2022/01/22 11:23:43;;;;;;;8.80;3.88;;;;;;;-2.14;100.00;98373.75;5151743;27;20528;-51
2022/01/22 11:26:09;;;;;;;7.75;3.65;;;;;;;-2.16;100.00;98405.50;5151757;27;20055;-54
2022/01/22 11:28:38;;;;;;;4.63;3.30;;;;;;;-2.03;100.00;98440.69;5151870;27;20051;-51
2022/01/22 11:31:06;;;;;;;7.85;3.42;;;;;;;-2.07;100.00;98459.28;5151686;27;20049;-52
2022/01/22 11:33:33;;;;;;;5.40;3.70;;;;;;;-2.06;100.00;98465.50;5151439;27;20099;-52
2022/01/22 11:36:04;;;;;;;10.00;4.25;;;;;;;-2.05;100.00;98475.91;5151406;27;20053;-54
2022/01/22 11:38:35;;;;;;;8.65;4.00;;;;;;;-1.90;100.00;98502.50;5151294;27;20042;-51
2022/01/22 11:41:07;;;;;;;8.13;3.40;;;;;;;-1.94;100.00;98504.16;5151282;27;20053;-54
2022/01/22 11:44:08;;;;;;;5.38;3.42;;;;;;;-1.94;100.00;98514.13;5151520;27;20046;-54
2022/01/22 11:46:39;;;;;;;6.68;4.15;;;;;;;-1.92;100.00;98520.78;5151385;27;20051;-50
2022/01/22 11:49:21;;;;;;;6.50;3.95;;;;;;;-1.90;100.00;98523.16;5151177;27;20046;-52
2022/01/22 11:51:49;;;;;;;4.95;3.72;;;;;;;-1.92;100.00;98531.53;5151595;27;20051;-54
2022/01/22 11:54:17;;;;;;;10.38;4.75;;;;;;;-1.93;100.00;98539.91;5151147;27;20054;-54
2022/01/22 11:56:46;;;;;;;9.18;4.32;;;;;;;-2.03;100.00;98535.53;5151265;27;20429;-51
2022/01/22 11:59:23;;;;;;;6.72;3.63;;;;;;;-2.14;100.00;98561.75;5151019;27;20432;-51
2022/01/22 12:02:06;;;;;;;5.30;3.80;;;;;;;-2.14;100.00;98595.88;5151229;27;20733;-51
2022/01/22 12:04:52;;;;;;;11.05;4.40;;;;;;;-2.15;100.00;98621.13;5154927;27;20168;-54
2022/01/22 12:07:21;;;;;;;6.57;3.95;;;;;;;-2.03;100.00;98653.72;5154644;27;20505;-54
2022/01/22 12:10:18;;;;;;;7.38;3.90;;;;;;;-2.15;100.00;98656.84;5155162;27;20489;-54
2022/01/22 12:15:54;;;;;;;7.75;3.95;;;;;;;-2.14;100.00;98696.03;5154832;27;20077;-52
2022/01/22 12:18:35;;;;;;;9.45;4.10;;;;;;;-2.10;100.00;98722.28;5154963;27;20569;-52
2022/01/22 12:23:49;;;;;;;8.15;4.97;;;;;;;-2.28;100.00;98799.91;5154849;27;20054;-52
2022/01/22 12:26:35;;;;;;;8.43;4.78;;;;;;;-2.26;100.00;98851.44;5154530;27;20057;-54
2022/01/22 12:29:46;;;;;;;8.25;4.28;;;;;;;-2.14;100.00;98893.97;5154651;27;20102;-52
2022/01/22 12:32:19;;;;;;;9.02;4.30;;;;;;;-2.21;100.00;98906.94;5154241;27;20527;-53
2022/01/22 12:35:07;;;;;;;6.70;4.43;;;;;;;-2.16;100.00;98921.13;5154766;27;20127;-54
2022/01/22 12:37:39;;;;;;;7.20;4.35;;;;;;;-2.11;100.00;98916.78;5154490;27;20055;-54
2022/01/22 12:40:07;;;;;;;8.30;4.40;;;;;;;-2.30;100.00;98922.91;5154364;27;20489;-54